sensor_id;sensor_type;location;lat;lon;timestamp;temperature;humidity
34135;DHT22;20410;55.578;12.968;2023-04-25T00:01:01;9.60;1.00
34135;DHT22;20410;55.578;12.968;2023-04-25T00:03:27;9.60;1.00
34135;DHT22;20410;55.578;12.968;2023-04-25T00:05:54;9.70;1.00
34135;DHT22;20410;55.578;12.968;2023-04-25T00:08:22;9.60;1.00
34135;DHT22;20410;55.578;12.968;2023-04-25T00:10:47;9.50;1.00
34135;DHT22;20410;55.578;12.968;2023-04-25T00:13:14;9.40;1.00
34135;DHT22;20410;55.578;12.968;2023-04-25T00:15:40;9.40;1.00
34135;DHT22;20410;55.578;12.968;2023-04-25T00:18:07;9.40;1.00
34135;DHT22;20410;55.578;12.968;2023-04-25T00:20:33;9.30;1.00
34135;DHT22;20410;55.578;12.968;2023-04-25T00:22:58;9.20;1.00
34135;DHT22;20410;55.578;12.968;2023-04-25T00:25:24;9.10;1.00
34135;DHT22;20410;55.578;12.968;2023-04-25T00:27:50;9.10;1.00
34135;DHT22;20410;55.578;12.968;2023-04-25T00:30:16;9.00;1.00
34135;DHT22;20410;55.578;12.968;2023-04-25T00:32:41;9.00;1.00
34135;DHT22;20410;55.578;12.968;2023-04-25T00:35:07;9.00;1.00
34135;DHT22;20410;55.578;12.968;2023-04-25T00:37:33;9.00;4.70
34135;DHT22;20410;55.578;12.968;2023-04-25T00:39:58;9.10;10.00
34135;DHT22;20410;55.578;12.968;2023-04-25T00:42:25;9.00;16.30
34135;DHT22;20410;55.578;12.968;2023-04-25T00:44:52;9.00;23.00
34135;DHT22;20410;55.578;12.968;2023-04-25T00:47:18;9.00;18.10
34135;DHT22;20410;55.578;12.968;2023-04-25T00:49:43;9.00;11.70
34135;DHT22;20410;55.578;12.968;2023-04-25T00:52:10;9.00;12.30
34135;DHT22;20410;55.578;12.968;2023-04-25T00:54:36;9.00;10.30
34135;DHT22;20410;55.578;12.968;2023-04-25T00:57:02;9.10;20.00
34135;DHT22;20410;55.578;12.968;2023-04-25T00:59:28;9.00;9.50
34135;DHT22;20410;55.578;12.968;2023-04-25T01:01:56;9.00;3.90
34135;DHT22;20410;55.578;12.968;2023-04-25T01:04:22;9.00;1.00
34135;DHT22;20410;55.578;12.968;2023-04-25T01:06:48;9.00;1.00
34135;DHT22;20410;55.578;12.968;2023-04-25T01:09:13;8.90;1.00
34135;DHT22;20410;55.578;12.968;2023-04-25T01:11:40;8.90;1.00
34135;DHT22;20410;55.578;12.968;2023-04-25T01:14:05;8.90;1.00
34135;DHT22;20410;55.578;12.968;2023-04-25T01:16:32;8.80;1.00
34135;DHT22;20410;55.578;12.968;2023-04-25T01:18:58;8.90;1.00
34135;DHT22;20410;55.578;12.968;2023-04-25T01:21:24;8.90;1.00
34135;DHT22;20410;55.578;12.968;2023-04-25T01:23:53;8.80;1.00
34135;DHT22;20410;55.578;12.968;2023-04-25T01:26:19;8.80;1.00
34135;DHT22;20410;55.578;12.968;2023-04-25T01:28:47;8.80;1.00
34135;DHT22;20410;55.578;12.968;2023-04-25T01:31:13;8.80;1.00
34135;DHT22;20410;55.578;12.968;2023-04-25T01:33:39;8.70;1.00
34135;DHT22;20410;55.578;12.968;2023-04-25T01:36:05;8.70;1.00
34135;DHT22;20410;55.578;12.968;2023-04-25T01:38:31;8.60;1.00
34135;DHT22;20410;55.578;12.968;2023-04-25T01:40:57;8.60;1.00
34135;DHT22;20410;55.578;12.968;2023-04-25T01:43:23;8.70;1.00
34135;DHT22;20410;55.578;12.968;2023-04-25T01:45:49;8.60;1.00
34135;DHT22;20410;55.578;12.968;2023-04-25T01:48:15;8.60;1.00
34135;DHT22;20410;55.578;12.968;2023-04-25T01:50:41;8.60;1.00
34135;DHT22;20410;55.578;12.968;2023-04-25T01:53:09;8.60;1.00
34135;DHT22;20410;55.578;12.968;2023-04-25T01:55:35;8.60;1.00
34135;DHT22;20410;55.578;12.968;2023-04-25T01:58:02;8.60;1.00
34135;DHT22;20410;55.578;12.968;2023-04-25T02:00:28;8.60;1.00
34135;DHT22;20410;55.578;12.968;2023-04-25T02:02:57;8.60;1.00
34135;DHT22;20410;55.578;12.968;2023-04-25T02:05:22;8.60;1.00
34135;DHT22;20410;55.578;12.968;2023-04-25T02:07:48;8.50;1.00
34135;DHT22;20410;55.578;12.968;2023-04-25T02:10:14;8.50;1.00
34135;DHT22;20410;55.578;12.968;2023-04-25T02:12:40;8.50;1.00
34135;DHT22;20410;55.578;12.968;2023-04-25T02:15:06;8.50;1.00
34135;DHT22;20410;55.578;12.968;2023-04-25T02:17:31;8.50;1.00
34135;DHT22;20410;55.578;12.968;2023-04-25T02:19:57;8.50;1.00
34135;DHT22;20410;55.578;12.968;2023-04-25T02:22:23;8.50;1.00
34135;DHT22;20410;55.578;12.968;2023-04-25T02:24:49;8.50;1.00
34135;DHT22;20410;55.578;12.968;2023-04-25T02:27:14;8.50;1.00
34135;DHT22;20410;55.578;12.968;2023-04-25T02:29:40;8.40;1.00
34135;DHT22;20410;55.578;12.968;2023-04-25T02:32:06;8.40;1.00
34135;DHT22;20410;55.578;12.968;2023-04-25T02:34:31;8.30;1.00
34135;DHT22;20410;55.578;12.968;2023-04-25T02:36:57;8.30;1.00
34135;DHT22;20410;55.578;12.968;2023-04-25T02:39:23;8.30;1.00
34135;DHT22;20410;55.578;12.968;2023-04-25T02:41:50;8.40;1.00
34135;DHT22;20410;55.578;12.968;2023-04-25T02:44:16;8.50;1.00
34135;DHT22;20410;55.578;12.968;2023-04-25T02:46:41;8.50;1.00
34135;DHT22;20410;55.578;12.968;2023-04-25T02:49:07;8.50;1.00
34135;DHT22;20410;55.578;12.968;2023-04-25T02:51:32;8.50;1.00
34135;DHT22;20410;55.578;12.968;2023-04-25T02:53:58;8.60;1.00
34135;DHT22;20410;55.578;12.968;2023-04-25T02:56:24;8.60;1.00
34135;DHT22;20410;55.578;12.968;2023-04-25T02:58:51;8.50;1.00
34135;DHT22;20410;55.578;12.968;2023-04-25T03:01:17;8.50;1.00
34135;DHT22;20410;55.578;12.968;2023-04-25T03:03:43;8.40;1.00
34135;DHT22;20410;55.578;12.968;2023-04-25T03:06:08;8.40;1.00
34135;DHT22;20410;55.578;12.968;2023-04-25T03:08:34;8.40;1.00
34135;DHT22;20410;55.578;12.968;2023-04-25T03:11:00;8.50;1.00
34135;DHT22;20410;55.578;12.968;2023-04-25T03:13:26;8.50;1.00
34135;DHT22;20410;55.578;12.968;2023-04-25T03:15:52;8.50;1.00
34135;DHT22;20410;55.578;12.968;2023-04-25T03:18:18;8.50;1.00
34135;DHT22;20410;55.578;12.968;2023-04-25T03:20:44;8.50;1.00
34135;DHT22;20410;55.578;12.968;2023-04-25T03:23:09;8.50;1.00
34135;DHT22;20410;55.578;12.968;2023-04-25T03:25:35;8.50;1.00
34135;DHT22;20410;55.578;12.968;2023-04-25T03:28:00;8.60;1.00
34135;DHT22;20410;55.578;12.968;2023-04-25T03:30:26;8.50;1.00
34135;DHT22;20410;55.578;12.968;2023-04-25T03:32:51;8.50;1.00
34135;DHT22;20410;55.578;12.968;2023-04-25T03:35:17;8.60;1.00
34135;DHT22;20410;55.578;12.968;2023-04-25T03:37:43;8.60;1.00
34135;DHT22;20410;55.578;12.968;2023-04-25T03:40:11;8.60;1.00
34135;DHT22;20410;55.578;12.968;2023-04-25T03:42:37;8.60;1.00
34135;DHT22;20410;55.578;12.968;2023-04-25T03:45:03;8.70;1.00
34135;DHT22;20410;55.578;12.968;2023-04-25T03:47:29;8.70;1.00
34135;DHT22;20410;55.578;12.968;2023-04-25T03:49:54;8.70;1.00
34135;DHT22;20410;55.578;12.968;2023-04-25T03:52:20;8.70;1.00
34135;DHT22;20410;55.578;12.968;2023-04-25T03:54:46;8.70;1.00
34135;DHT22;20410;55.578;12.968;2023-04-25T03:57:11;8.70;1.00
34135;DHT22;20410;55.578;12.968;2023-04-25T03:59:37;8.70;1.00
34135;DHT22;20410;55.578;12.968;2023-04-25T04:02:02;8.60;1.00
34135;DHT22;20410;55.578;12.968;2023-04-25T04:04:28;8.50;1.00
34135;DHT22;20410;55.578;12.968;2023-04-25T04:06:53;8.60;1.00
34135;DHT22;20410;55.578;12.968;2023-04-25T04:09:19;8.60;1.00
34135;DHT22;20410;55.578;12.968;2023-04-25T04:11:45;8.60;1.00
34135;DHT22;20410;55.578;12.968;2023-04-25T04:14:11;8.60;1.00
34135;DHT22;20410;55.578;12.968;2023-04-25T04:16:36;8.60;1.00
34135;DHT22;20410;55.578;12.968;2023-04-25T04:19:02;8.60;1.00
34135;DHT22;20410;55.578;12.968;2023-04-25T04:21:28;8.60;1.00
34135;DHT22;20410;55.578;12.968;2023-04-25T04:23:54;8.60;1.00
34135;DHT22;20410;55.578;12.968;2023-04-25T04:26:20;8.50;1.00
34135;DHT22;20410;55.578;12.968;2023-04-25T04:28:49;8.50;1.00
34135;DHT22;20410;55.578;12.968;2023-04-25T04:31:16;8.60;1.00
34135;DHT22;20410;55.578;12.968;2023-04-25T04:33:43;8.50;1.00
34135;DHT22;20410;55.578;12.968;2023-04-25T04:36:10;8.60;1.00
34135;DHT22;20410;55.578;12.968;2023-04-25T04:38:35;8.60;1.00
34135;DHT22;20410;55.578;12.968;2023-04-25T04:41:02;8.60;1.00
34135;DHT22;20410;55.578;12.968;2023-04-25T04:43:28;8.60;1.00
34135;DHT22;20410;55.578;12.968;2023-04-25T04:45:55;8.60;1.00
34135;DHT22;20410;55.578;12.968;2023-04-25T04:48:21;8.60;1.00
34135;DHT22;20410;55.578;12.968;2023-04-25T04:50:47;8.60;1.00
34135;DHT22;20410;55.578;12.968;2023-04-25T04:53:13;8.60;1.00
34135;DHT22;20410;55.578;12.968;2023-04-25T04:55:39;8.60;1.00
34135;DHT22;20410;55.578;12.968;2023-04-25T04:58:06;8.60;1.00
34135;DHT22;20410;55.578;12.968;2023-04-25T05:00:32;8.60;1.00
34135;DHT22;20410;55.578;12.968;2023-04-25T05:02:58;8.60;1.00
34135;DHT22;20410;55.578;12.968;2023-04-25T05:05:24;8.60;1.00
34135;DHT22;20410;55.578;12.968;2023-04-25T05:07:50;8.50;1.00
34135;DHT22;20410;55.578;12.968;2023-04-25T05:10:19;8.50;1.00
34135;DHT22;20410;55.578;12.968;2023-04-25T05:12:45;8.50;1.00
34135;DHT22;20410;55.578;12.968;2023-04-25T05:15:11;8.60;1.00
34135;DHT22;20410;55.578;12.968;2023-04-25T05:17:37;8.60;1.00
34135;DHT22;20410;55.578;12.968;2023-04-25T05:20:05;8.70;1.00
34135;DHT22;20410;55.578;12.968;2023-04-25T05:22:31;8.70;1.00
34135;DHT22;20410;55.578;12.968;2023-04-25T05:24:57;8.70;1.00
34135;DHT22;20410;55.578;12.968;2023-04-25T05:27:23;8.70;1.00
34135;DHT22;20410;55.578;12.968;2023-04-25T05:29:49;8.70;1.00
34135;DHT22;20410;55.578;12.968;2023-04-25T05:32:14;8.70;1.00
34135;DHT22;20410;55.578;12.968;2023-04-25T05:34:40;8.70;1.00
34135;DHT22;20410;55.578;12.968;2023-04-25T05:37:07;8.70;1.00
34135;DHT22;20410;55.578;12.968;2023-04-25T05:39:32;8.60;1.00
34135;DHT22;20410;55.578;12.968;2023-04-25T05:41:58;8.60;1.00
34135;DHT22;20410;55.578;12.968;2023-04-25T05:44:23;8.70;1.00
34135;DHT22;20410;55.578;12.968;2023-04-25T05:46:49;8.50;1.00
34135;DHT22;20410;55.578;12.968;2023-04-25T05:49:15;8.50;1.00
34135;DHT22;20410;55.578;12.968;2023-04-25T05:51:40;8.40;1.00
34135;DHT22;20410;55.578;12.968;2023-04-25T05:54:06;8.40;1.00
34135;DHT22;20410;55.578;12.968;2023-04-25T05:56:31;8.40;1.00
34135;DHT22;20410;55.578;12.968;2023-04-25T05:58:57;8.40;1.00
34135;DHT22;20410;55.578;12.968;2023-04-25T06:01:23;8.40;1.00
34135;DHT22;20410;55.578;12.968;2023-04-25T06:03:49;8.40;1.00
34135;DHT22;20410;55.578;12.968;2023-04-25T06:06:14;8.30;1.00
34135;DHT22;20410;55.578;12.968;2023-04-25T06:08:41;8.30;1.00
34135;DHT22;20410;55.578;12.968;2023-04-25T06:11:06;8.30;1.00
34135;DHT22;20410;55.578;12.968;2023-04-25T06:13:33;8.20;1.00
34135;DHT22;20410;55.578;12.968;2023-04-25T06:15:59;8.20;1.00
34135;DHT22;20410;55.578;12.968;2023-04-25T06:18:24;8.20;1.00
34135;DHT22;20410;55.578;12.968;2023-04-25T06:20:50;8.30;1.00
34135;DHT22;20410;55.578;12.968;2023-04-25T06:23:15;8.30;1.00
34135;DHT22;20410;55.578;12.968;2023-04-25T06:25:41;8.30;1.00
34135;DHT22;20410;55.578;12.968;2023-04-25T06:28:06;8.30;1.00
34135;DHT22;20410;55.578;12.968;2023-04-25T06:30:32;8.30;1.00
34135;DHT22;20410;55.578;12.968;2023-04-25T06:32:58;8.30;1.00
34135;DHT22;20410;55.578;12.968;2023-04-25T06:35:23;8.40;1.00
34135;DHT22;20410;55.578;12.968;2023-04-25T06:37:49;8.40;1.00
34135;DHT22;20410;55.578;12.968;2023-04-25T06:40:15;8.40;1.00
34135;DHT22;20410;55.578;12.968;2023-04-25T06:42:42;8.40;1.00
34135;DHT22;20410;55.578;12.968;2023-04-25T06:45:08;8.40;1.00
34135;DHT22;20410;55.578;12.968;2023-04-25T06:47:34;8.40;1.00
34135;DHT22;20410;55.578;12.968;2023-04-25T06:50:00;8.40;1.00
34135;DHT22;20410;55.578;12.968;2023-04-25T06:52:25;8.50;1.00
34135;DHT22;20410;55.578;12.968;2023-04-25T06:54:51;8.50;1.00
34135;DHT22;20410;55.578;12.968;2023-04-25T06:57:16;8.60;1.00
34135;DHT22;20410;55.578;12.968;2023-04-25T06:59:42;8.50;1.00
34135;DHT22;20410;55.578;12.968;2023-04-25T07:02:07;8.50;1.00
34135;DHT22;20410;55.578;12.968;2023-04-25T07:04:33;8.50;1.00
34135;DHT22;20410;55.578;12.968;2023-04-25T07:06:59;8.50;1.00
34135;DHT22;20410;55.578;12.968;2023-04-25T07:09:27;8.50;1.00
34135;DHT22;20410;55.578;12.968;2023-04-25T07:11:53;8.50;1.00
34135;DHT22;20410;55.578;12.968;2023-04-25T07:14:19;8.50;1.00
34135;DHT22;20410;55.578;12.968;2023-04-25T07:16:45;8.40;1.00
34135;DHT22;20410;55.578;12.968;2023-04-25T07:19:11;8.50;1.00
34135;DHT22;20410;55.578;12.968;2023-04-25T07:21:36;8.50;1.00
34135;DHT22;20410;55.578;12.968;2023-04-25T07:24:02;8.40;1.00
34135;DHT22;20410;55.578;12.968;2023-04-25T07:26:28;8.50;1.00
34135;DHT22;20410;55.578;12.968;2023-04-25T07:28:53;8.50;1.00
34135;DHT22;20410;55.578;12.968;2023-04-25T07:31:20;8.40;1.00
34135;DHT22;20410;55.578;12.968;2023-04-25T07:33:45;8.40;1.00
34135;DHT22;20410;55.578;12.968;2023-04-25T07:36:11;8.40;1.00
34135;DHT22;20410;55.578;12.968;2023-04-25T07:38:38;8.40;1.00
34135;DHT22;20410;55.578;12.968;2023-04-25T07:41:04;8.40;1.00
34135;DHT22;20410;55.578;12.968;2023-04-25T07:43:29;8.30;1.00
34135;DHT22;20410;55.578;12.968;2023-04-25T07:45:56;8.40;1.00
34135;DHT22;20410;55.578;12.968;2023-04-25T07:48:22;8.40;1.00
34135;DHT22;20410;55.578;12.968;2023-04-25T07:50:47;8.50;1.00
34135;DHT22;20410;55.578;12.968;2023-04-25T07:53:13;8.50;1.00
34135;DHT22;20410;55.578;12.968;2023-04-25T07:55:39;8.40;1.00
34135;DHT22;20410;55.578;12.968;2023-04-25T07:58:08;8.40;1.00
34135;DHT22;20410;55.578;12.968;2023-04-25T08:00:35;8.40;1.00
34135;DHT22;20410;55.578;12.968;2023-04-25T08:03:01;8.40;1.00
34135;DHT22;20410;55.578;12.968;2023-04-25T08:05:26;8.40;1.00
34135;DHT22;20410;55.578;12.968;2023-04-25T08:07:52;8.40;1.00
34135;DHT22;20410;55.578;12.968;2023-04-25T08:10:17;8.50;1.00
34135;DHT22;20410;55.578;12.968;2023-04-25T08:12:43;8.40;1.00
34135;DHT22;20410;55.578;12.968;2023-04-25T08:15:09;8.50;1.00
34135;DHT22;20410;55.578;12.968;2023-04-25T08:17:35;8.50;1.00
34135;DHT22;20410;55.578;12.968;2023-04-25T08:20:01;8.50;1.00
34135;DHT22;20410;55.578;12.968;2023-04-25T08:22:28;8.50;1.00
34135;DHT22;20410;55.578;12.968;2023-04-25T08:24:54;8.60;1.00
34135;DHT22;20410;55.578;12.968;2023-04-25T08:27:19;8.60;1.00
34135;DHT22;20410;55.578;12.968;2023-04-25T08:29:47;8.50;1.00
34135;DHT22;20410;55.578;12.968;2023-04-25T08:32:13;8.60;1.00
34135;DHT22;20410;55.578;12.968;2023-04-25T08:34:38;8.60;1.00
34135;DHT22;20410;55.578;12.968;2023-04-25T08:37:08;8.60;1.00
34135;DHT22;20410;55.578;12.968;2023-04-25T08:39:37;8.60;1.00
34135;DHT22;20410;55.578;12.968;2023-04-25T08:42:06;8.60;1.00
34135;DHT22;20410;55.578;12.968;2023-04-25T08:44:35;8.70;1.00
34135;DHT22;20410;55.578;12.968;2023-04-25T08:47:03;8.70;1.00
34135;DHT22;20410;55.578;12.968;2023-04-25T08:49:31;8.80;1.00
34135;DHT22;20410;55.578;12.968;2023-04-25T08:52:00;8.90;1.00
34135;DHT22;20410;55.578;12.968;2023-04-25T08:54:27;8.90;1.00
34135;DHT22;20410;55.578;12.968;2023-04-25T08:56:54;9.00;1.00
34135;DHT22;20410;55.578;12.968;2023-04-25T08:59:22;8.90;1.00
34135;DHT22;20410;55.578;12.968;2023-04-25T09:01:49;8.90;1.00
34135;DHT22;20410;55.578;12.968;2023-04-25T09:04:15;8.90;1.00
34135;DHT22;20410;55.578;12.968;2023-04-25T09:06:41;8.90;1.00
34135;DHT22;20410;55.578;12.968;2023-04-25T09:09:08;8.90;1.00
34135;DHT22;20410;55.578;12.968;2023-04-25T09:11:36;8.90;1.00
34135;DHT22;20410;55.578;12.968;2023-04-25T09:14:18;8.90;1.00
34135;DHT22;20410;55.578;12.968;2023-04-25T09:17:01;9.00;1.00
34135;DHT22;20410;55.578;12.968;2023-04-25T09:19:35;9.00;1.00
34135;DHT22;20410;55.578;12.968;2023-04-25T09:22:04;9.10;1.00
34135;DHT22;20410;55.578;12.968;2023-04-25T09:24:43;9.10;1.00
34135;DHT22;20410;55.578;12.968;2023-04-25T09:27:10;9.10;1.00
34135;DHT22;20410;55.578;12.968;2023-04-25T09:29:41;9.10;1.00
34135;DHT22;20410;55.578;12.968;2023-04-25T09:34:49;9.10;1.00
34135;DHT22;20410;55.578;12.968;2023-04-25T09:37:29;9.10;1.00
34135;DHT22;20410;55.578;12.968;2023-04-25T09:39:59;9.20;1.00
34135;DHT22;20410;55.578;12.968;2023-04-25T09:42:26;9.20;1.00
34135;DHT22;20410;55.578;12.968;2023-04-25T09:44:54;9.20;1.00
34135;DHT22;20410;55.578;12.968;2023-04-25T09:47:20;9.30;1.00
34135;DHT22;20410;55.578;12.968;2023-04-25T09:49:48;9.30;1.00
34135;DHT22;20410;55.578;12.968;2023-04-25T09:52:17;9.40;1.00
34135;DHT22;20410;55.578;12.968;2023-04-25T09:54:46;9.30;1.00
34135;DHT22;20410;55.578;12.968;2023-04-25T09:57:17;9.30;1.00
34135;DHT22;20410;55.578;12.968;2023-04-25T09:59:44;9.30;1.00
34135;DHT22;20410;55.578;12.968;2023-04-25T10:02:11;9.30;1.00
34135;DHT22;20410;55.578;12.968;2023-04-25T10:04:38;9.30;1.00
34135;DHT22;20410;55.578;12.968;2023-04-25T10:07:06;9.40;1.00
34135;DHT22;20410;55.578;12.968;2023-04-25T10:09:32;9.50;1.00
34135;DHT22;20410;55.578;12.968;2023-04-25T10:12:03;9.50;1.00
34135;DHT22;20410;55.578;12.968;2023-04-25T10:14:30;9.60;1.00
34135;DHT22;20410;55.578;12.968;2023-04-25T10:16:57;9.60;1.00
34135;DHT22;20410;55.578;12.968;2023-04-25T10:19:24;9.80;1.00
34135;DHT22;20410;55.578;12.968;2023-04-25T10:24:18;9.90;1.00
34135;DHT22;20410;55.578;12.968;2023-04-25T10:26:44;10.00;1.00
34135;DHT22;20410;55.578;12.968;2023-04-25T10:29:10;10.10;1.00
34135;DHT22;20410;55.578;12.968;2023-04-25T10:31:45;10.10;1.00
34135;DHT22;20410;55.578;12.968;2023-04-25T10:34:12;10.30;1.00
34135;DHT22;20410;55.578;12.968;2023-04-25T10:36:38;10.30;1.00
34135;DHT22;20410;55.578;12.968;2023-04-25T10:39:07;10.30;1.00
34135;DHT22;20410;55.578;12.968;2023-04-25T10:41:47;10.40;1.00
34135;DHT22;20410;55.578;12.968;2023-04-25T10:44:14;10.60;1.00
34135;DHT22;20410;55.578;12.968;2023-04-25T10:46:39;10.60;1.00
34135;DHT22;20410;55.578;12.968;2023-04-25T10:49:08;10.60;1.00
34135;DHT22;20410;55.578;12.968;2023-04-25T10:51:36;10.70;1.00
34135;DHT22;20410;55.578;12.968;2023-04-25T10:54:07;10.70;1.00
34135;DHT22;20410;55.578;12.968;2023-04-25T10:56:41;10.70;1.00
34135;DHT22;20410;55.578;12.968;2023-04-25T10:59:15;10.70;1.00
34135;DHT22;20410;55.578;12.968;2023-04-25T11:01:43;10.80;1.00
34135;DHT22;20410;55.578;12.968;2023-04-25T11:04:31;10.80;1.00
34135;DHT22;20410;55.578;12.968;2023-04-25T11:07:13;10.90;1.00
34135;DHT22;20410;55.578;12.968;2023-04-25T11:09:44;10.90;1.00
34135;DHT22;20410;55.578;12.968;2023-04-25T11:12:11;10.90;1.00
34135;DHT22;20410;55.578;12.968;2023-04-25T11:14:38;11.00;1.00
34135;DHT22;20410;55.578;12.968;2023-04-25T11:17:03;11.00;1.00
34135;DHT22;20410;55.578;12.968;2023-04-25T11:19:29;11.10;1.00
34135;DHT22;20410;55.578;12.968;2023-04-25T11:21:59;11.10;1.00
34135;DHT22;20410;55.578;12.968;2023-04-25T11:24:35;11.20;1.00
34135;DHT22;20410;55.578;12.968;2023-04-25T11:27:03;11.20;1.00
34135;DHT22;20410;55.578;12.968;2023-04-25T11:29:33;11.20;1.00
34135;DHT22;20410;55.578;12.968;2023-04-25T11:31:59;11.10;1.00
34135;DHT22;20410;55.578;12.968;2023-04-25T11:34:27;11.10;1.00
34135;DHT22;20410;55.578;12.968;2023-04-25T11:36:53;11.10;1.00
34135;DHT22;20410;55.578;12.968;2023-04-25T11:39:19;11.20;1.00
34135;DHT22;20410;55.578;12.968;2023-04-25T11:41:46;11.10;1.00
34135;DHT22;20410;55.578;12.968;2023-04-25T11:44:12;11.10;1.00
34135;DHT22;20410;55.578;12.968;2023-04-25T11:46:40;11.00;1.00
34135;DHT22;20410;55.578;12.968;2023-04-25T11:49:06;11.10;1.00
34135;DHT22;20410;55.578;12.968;2023-04-25T11:51:38;11.00;1.00
34135;DHT22;20410;55.578;12.968;2023-04-25T11:54:05;11.00;1.00
34135;DHT22;20410;55.578;12.968;2023-04-25T11:56:31;10.90;1.00
34135;DHT22;20410;55.578;12.968;2023-04-25T11:58:59;10.90;1.00
34135;DHT22;20410;55.578;12.968;2023-04-25T12:01:32;11.00;1.00
34135;DHT22;20410;55.578;12.968;2023-04-25T12:04:17;11.10;1.00
34135;DHT22;20410;55.578;12.968;2023-04-25T12:06:44;11.20;1.00
34135;DHT22;20410;55.578;12.968;2023-04-25T12:09:15;11.20;1.00
34135;DHT22;20410;55.578;12.968;2023-04-25T12:11:48;11.20;1.00
34135;DHT22;20410;55.578;12.968;2023-04-25T12:14:40;11.30;1.00
34135;DHT22;20410;55.578;12.968;2023-04-25T12:17:12;11.30;1.00
34135;DHT22;20410;55.578;12.968;2023-04-25T12:19:38;11.30;1.00
34135;DHT22;20410;55.578;12.968;2023-04-25T12:22:20;11.30;1.00
34135;DHT22;20410;55.578;12.968;2023-04-25T12:24:46;11.30;1.00
34135;DHT22;20410;55.578;12.968;2023-04-25T12:27:15;11.30;1.00
34135;DHT22;20410;55.578;12.968;2023-04-25T12:29:55;11.30;1.00
34135;DHT22;20410;55.578;12.968;2023-04-25T12:32:21;11.30;1.00
34135;DHT22;20410;55.578;12.968;2023-04-25T12:34:46;11.30;1.00
34135;DHT22;20410;55.578;12.968;2023-04-25T12:37:13;11.30;1.00
34135;DHT22;20410;55.578;12.968;2023-04-25T12:39:38;11.30;1.00
34135;DHT22;20410;55.578;12.968;2023-04-25T12:42:04;11.30;1.00
34135;DHT22;20410;55.578;12.968;2023-04-25T12:44:30;11.20;1.00
34135;DHT22;20410;55.578;12.968;2023-04-25T12:46:56;11.20;1.00
34135;DHT22;20410;55.578;12.968;2023-04-25T12:49:21;11.30;1.00
34135;DHT22;20410;55.578;12.968;2023-04-25T12:51:47;11.40;1.00
34135;DHT22;20410;55.578;12.968;2023-04-25T12:54:13;11.50;1.00
34135;DHT22;20410;55.578;12.968;2023-04-25T12:56:41;11.60;1.00
34135;DHT22;20410;55.578;12.968;2023-04-25T12:59:07;11.60;1.00
34135;DHT22;20410;55.578;12.968;2023-04-25T13:01:32;11.50;1.00
34135;DHT22;20410;55.578;12.968;2023-04-25T13:03:58;11.50;1.00
34135;DHT22;20410;55.578;12.968;2023-04-25T13:06:24;11.50;1.00
34135;DHT22;20410;55.578;12.968;2023-04-25T13:08:50;11.40;99.90
34135;DHT22;20410;55.578;12.968;2023-04-25T13:11:15;11.40;1.00
34135;DHT22;20410;55.578;12.968;2023-04-25T13:13:41;11.30;1.00
34135;DHT22;20410;55.578;12.968;2023-04-25T13:16:08;11.40;1.00
34135;DHT22;20410;55.578;12.968;2023-04-25T13:18:34;11.50;1.00
34135;DHT22;20410;55.578;12.968;2023-04-25T13:21:00;11.40;1.00
34135;DHT22;20410;55.578;12.968;2023-04-25T13:23:27;11.40;1.00
34135;DHT22;20410;55.578;12.968;2023-04-25T13:25:54;11.40;1.00
34135;DHT22;20410;55.578;12.968;2023-04-25T13:28:20;11.40;1.00
34135;DHT22;20410;55.578;12.968;2023-04-25T13:30:46;11.50;1.00
34135;DHT22;20410;55.578;12.968;2023-04-25T13:33:13;11.60;1.00
34135;DHT22;20410;55.578;12.968;2023-04-25T13:35:40;11.70;1.00
34135;DHT22;20410;55.578;12.968;2023-04-25T13:38:05;11.60;1.00
34135;DHT22;20410;55.578;12.968;2023-04-25T13:40:31;11.60;1.00
34135;DHT22;20410;55.578;12.968;2023-04-25T13:42:57;11.60;1.00
34135;DHT22;20410;55.578;12.968;2023-04-25T13:45:23;11.60;1.00
34135;DHT22;20410;55.578;12.968;2023-04-25T13:47:49;11.60;1.00
34135;DHT22;20410;55.578;12.968;2023-04-25T13:50:14;11.60;1.00
34135;DHT22;20410;55.578;12.968;2023-04-25T13:52:41;11.60;1.00
34135;DHT22;20410;55.578;12.968;2023-04-25T13:55:07;11.70;1.00
34135;DHT22;20410;55.578;12.968;2023-04-25T13:57:34;11.70;1.00
34135;DHT22;20410;55.578;12.968;2023-04-25T13:59:59;11.70;1.00
34135;DHT22;20410;55.578;12.968;2023-04-25T14:02:30;11.50;1.00
34135;DHT22;20410;55.578;12.968;2023-04-25T14:04:55;11.60;1.00
34135;DHT22;20410;55.578;12.968;2023-04-25T14:07:21;11.50;1.00
34135;DHT22;20410;55.578;12.968;2023-04-25T14:09:47;11.50;1.00
34135;DHT22;20410;55.578;12.968;2023-04-25T14:12:12;11.70;1.00
34135;DHT22;20410;55.578;12.968;2023-04-25T14:14:38;12.10;1.00
34135;DHT22;20410;55.578;12.968;2023-04-25T14:17:03;12.30;1.00
34135;DHT22;20410;55.578;12.968;2023-04-25T14:19:29;12.40;99.90
34135;DHT22;20410;55.578;12.968;2023-04-25T14:21:55;12.30;1.00
34135;DHT22;20410;55.578;12.968;2023-04-25T14:24:21;12.30;1.00
34135;DHT22;20410;55.578;12.968;2023-04-25T14:26:46;12.30;1.00
34135;DHT22;20410;55.578;12.968;2023-04-25T14:29:12;12.20;1.00
34135;DHT22;20410;55.578;12.968;2023-04-25T14:31:39;12.10;1.00
34135;DHT22;20410;55.578;12.968;2023-04-25T14:34:05;11.90;1.00
34135;DHT22;20410;55.578;12.968;2023-04-25T14:36:32;11.80;1.00
34135;DHT22;20410;55.578;12.968;2023-04-25T14:38:58;11.80;1.00
34135;DHT22;20410;55.578;12.968;2023-04-25T14:41:24;11.70;1.00
34135;DHT22;20410;55.578;12.968;2023-04-25T14:43:50;11.60;1.00
34135;DHT22;20410;55.578;12.968;2023-04-25T14:46:16;11.60;1.00
34135;DHT22;20410;55.578;12.968;2023-04-25T14:48:42;11.70;1.00
34135;DHT22;20410;55.578;12.968;2023-04-25T14:51:07;11.80;1.00
34135;DHT22;20410;55.578;12.968;2023-04-25T14:53:33;11.90;1.00
34135;DHT22;20410;55.578;12.968;2023-04-25T14:55:59;11.90;1.00
34135;DHT22;20410;55.578;12.968;2023-04-25T14:58:24;11.80;1.00
34135;DHT22;20410;55.578;12.968;2023-04-25T15:00:50;11.80;1.00
34135;DHT22;20410;55.578;12.968;2023-04-25T15:03:16;11.90;1.00
34135;DHT22;20410;55.578;12.968;2023-04-25T15:05:42;12.00;1.00
34135;DHT22;20410;55.578;12.968;2023-04-25T15:08:08;12.00;1.00
34135;DHT22;20410;55.578;12.968;2023-04-25T15:10:34;12.00;1.00
34135;DHT22;20410;55.578;12.968;2023-04-25T15:13:00;11.80;1.00
34135;DHT22;20410;55.578;12.968;2023-04-25T15:15:26;11.70;1.00
34135;DHT22;20410;55.578;12.968;2023-04-25T15:17:52;11.70;1.00
34135;DHT22;20410;55.578;12.968;2023-04-25T15:20:17;11.60;1.00
34135;DHT22;20410;55.578;12.968;2023-04-25T15:22:44;11.50;1.00
34135;DHT22;20410;55.578;12.968;2023-04-25T15:25:15;11.40;1.00
34135;DHT22;20410;55.578;12.968;2023-04-25T15:27:44;11.30;1.00
34135;DHT22;20410;55.578;12.968;2023-04-25T15:30:12;11.30;1.00
34135;DHT22;20410;55.578;12.968;2023-04-25T15:32:40;11.30;1.00
34135;DHT22;20410;55.578;12.968;2023-04-25T15:35:06;11.30;1.00
34135;DHT22;20410;55.578;12.968;2023-04-25T15:37:33;11.30;1.00
34135;DHT22;20410;55.578;12.968;2023-04-25T15:42:48;11.40;1.00
34135;DHT22;20410;55.578;12.968;2023-04-25T15:45:18;11.40;1.00